createdAt,value
2017-12-12T00:01:19.666Z,44.09
2017-12-12T00:03:46.079Z,44.10
2017-12-12T00:06:12.507Z,44.11
2017-12-12T00:08:38.961Z,44.13
2017-12-12T00:11:05.400Z,44.09
2017-12-12T00:13:31.813Z,44.12
2017-12-12T00:15:58.524Z,44.10
2017-12-12T00:18:24.934Z,44.11
2017-12-12T00:20:51.354Z,44.12
2017-12-12T00:23:17.790Z,44.13
2017-12-12T00:25:44.205Z,44.12
2017-12-12T00:28:10.635Z,44.11
2017-12-12T00:30:37.049Z,44.11
2017-12-12T00:33:03.489Z,44.13
2017-12-12T00:35:29.906Z,44.15
2017-12-12T00:37:56.336Z,44.14
2017-12-12T00:40:22.746Z,44.15
2017-12-12T00:42:49.184Z,44.13
2017-12-12T00:45:15.612Z,44.13
2017-12-12T00:47:42.052Z,44.16
2017-12-12T00:50:08.459Z,44.18
2017-12-12T00:52:34.871Z,44.16
2017-12-12T00:55:01.299Z,44.18
2017-12-12T00:57:27.726Z,44.19
2017-12-12T00:59:54.159Z,44.18
2017-12-12T01:02:20.573Z,44.15
2017-12-12T01:04:47.008Z,44.14
2017-12-12T01:07:13.424Z,44.14
2017-12-12T01:09:39.864Z,44.14
2017-12-12T01:12:06.280Z,44.19
2017-12-12T01:14:32.718Z,44.16
2017-12-12T01:16:59.135Z,44.12
2017-12-12T01:19:25.553Z,44.13
2017-12-12T01:21:51.988Z,44.15
2017-12-12T01:24:18.401Z,44.18
2017-12-12T01:26:44.830Z,44.14
2017-12-12T01:29:11.236Z,44.16
2017-12-12T01:31:37.670Z,44.14
2017-12-12T01:34:04.085Z,44.17
2017-12-12T01:36:30.527Z,44.13
2017-12-12T01:38:56.943Z,44.14
2017-12-12T01:41:23.375Z,44.17
2017-12-12T01:43:49.793Z,44.14
2017-12-12T01:46:16.241Z,44.16
2017-12-12T01:48:42.645Z,44.15
2017-12-12T01:51:09.085Z,44.15
2017-12-12T01:53:35.497Z,44.13
2017-12-12T01:56:01.957Z,44.14
2017-12-12T01:58:28.373Z,44.11
2017-12-12T02:00:54.804Z,44.13
2017-12-12T02:03:21.220Z,44.13
2017-12-12T02:05:47.640Z,44.10
2017-12-12T02:08:14.082Z,44.15
2017-12-12T02:10:40.487Z,44.16
2017-12-12T02:13:06.926Z,44.13
2017-12-12T02:15:33.338Z,44.17
2017-12-12T02:17:59.757Z,44.12
2017-12-12T02:20:26.191Z,44.17
2017-12-12T02:22:52.606Z,44.13
2017-12-12T02:25:19.043Z,44.16
2017-12-12T02:27:45.465Z,44.16
2017-12-12T02:30:11.907Z,44.18
2017-12-12T02:32:38.318Z,44.18
2017-12-12T02:35:04.750Z,44.15
2017-12-12T02:37:31.173Z,44.15
2017-12-12T02:39:57.603Z,44.17
2017-12-12T02:42:24.020Z,44.17
2017-12-12T02:44:50.462Z,44.16
2017-12-12T02:47:16.883Z,44.20
2017-12-12T02:49:43.306Z,44.17
2017-12-12T02:52:09.740Z,44.15
2017-12-12T02:54:36.154Z,44.16
2017-12-12T02:57:02.586Z,44.17
2017-12-12T02:59:29.004Z,44.14
2017-12-12T03:01:55.445Z,44.16
2017-12-12T03:04:21.861Z,44.15
2017-12-12T03:06:48.291Z,44.17
2017-12-12T03:09:14.704Z,44.21
2017-12-12T03:11:41.138Z,44.21
2017-12-12T03:14:07.553Z,44.22
2017-12-12T03:16:34.010Z,44.20
2017-12-12T03:19:00.424Z,44.21
2017-12-12T03:21:26.848Z,44.21
2017-12-12T03:23:53.281Z,44.20
2017-12-12T03:26:19.694Z,44.19
2017-12-12T03:28:46.131Z,44.19
2017-12-12T03:31:12.547Z,44.17
2017-12-12T03:33:38.983Z,44.21
2017-12-12T03:36:05.401Z,44.16
2017-12-12T03:38:31.824Z,44.19
2017-12-12T03:40:58.240Z,44.16
2017-12-12T03:43:24.681Z,44.18
2017-12-12T03:45:51.092Z,44.15
2017-12-12T03:48:17.518Z,44.17
2017-12-12T03:50:43.942Z,44.16
2017-12-12T03:53:10.378Z,44.16
2017-12-12T03:55:36.796Z,44.17
2017-12-12T03:58:03.225Z,44.12
2017-12-12T04:00:29.652Z,44.17
2017-12-12T04:02:56.079Z,44.17
2017-12-12T04:05:22.496Z,44.21
2017-12-12T04:07:48.936Z,44.16
2017-12-12T04:10:15.351Z,44.14
2017-12-12T04:12:41.767Z,44.13
2017-12-12T04:15:08.204Z,44.14
2017-12-12T04:17:34.616Z,44.16
2017-12-12T04:20:01.047Z,44.16
2017-12-12T04:22:27.472Z,44.15
2017-12-12T04:24:53.913Z,44.14
2017-12-12T04:27:20.323Z,44.13
2017-12-12T04:29:46.745Z,44.14
2017-12-12T04:32:13.179Z,44.14
2017-12-12T04:34:39.600Z,44.13
2017-12-12T04:37:06.031Z,44.13
2017-12-12T04:39:32.449Z,44.14
2017-12-12T04:41:58.875Z,44.17
2017-12-12T04:44:25.293Z,44.14
2017-12-12T04:46:51.733Z,44.13
2017-12-12T04:49:18.152Z,44.15
2017-12-12T04:51:44.587Z,44.12
2017-12-12T04:54:11.002Z,44.08
2017-12-12T04:56:37.444Z,44.11
2017-12-12T04:59:03.861Z,44.07
2017-12-12T05:01:30.305Z,44.03
2017-12-12T05:03:56.723Z,44.02
2017-12-12T05:06:23.157Z,43.99
2017-12-12T05:08:49.566Z,43.94
2017-12-12T05:11:16.002Z,43.87
2017-12-12T05:13:42.418Z,43.81
2017-12-12T05:16:09.045Z,43.84
2017-12-12T05:18:35.461Z,43.83
2017-12-12T05:21:01.880Z,43.74
2017-12-12T05:23:28.318Z,43.77
2017-12-12T05:25:54.788Z,43.71
2017-12-12T05:28:21.227Z,43.69
2017-12-12T05:30:47.610Z,43.67
2017-12-12T05:33:14.038Z,43.59
2017-12-12T05:35:40.451Z,43.62
2017-12-12T05:38:06.887Z,43.59
2017-12-12T05:40:33.303Z,43.58
2017-12-12T05:42:59.752Z,43.60
2017-12-12T05:45:26.172Z,43.60
2017-12-12T05:47:52.595Z,43.60
2017-12-12T05:50:19.032Z,43.60
2017-12-12T05:52:45.443Z,43.59
2017-12-12T05:55:11.883Z,43.60
2017-12-12T05:57:38.298Z,43.58
2017-12-12T06:00:04.732Z,43.62
2017-12-12T06:02:31.142Z,43.58
2017-12-12T06:04:57.614Z,43.58
2017-12-12T06:07:24.031Z,43.58
2017-12-12T06:09:50.463Z,43.60
2017-12-12T06:12:16.873Z,43.62
2017-12-12T06:14:43.306Z,43.60
2017-12-12T06:17:09.753Z,43.63
2017-12-12T06:19:36.156Z,43.62
2017-12-12T06:22:02.568Z,43.62
2017-12-12T06:24:28.997Z,43.58
2017-12-12T06:26:55.440Z,43.60
2017-12-12T06:29:21.848Z,43.62
2017-12-12T06:31:48.289Z,43.60
2017-12-12T06:34:14.703Z,43.59
2017-12-12T06:36:41.143Z,43.59
2017-12-12T06:39:07.554Z,43.59
2017-12-12T06:41:33.989Z,43.58
2017-12-12T06:44:00.404Z,43.58
2017-12-12T06:46:26.844Z,43.58
2017-12-12T06:48:53.268Z,43.57
2017-12-12T06:51:19.685Z,43.57
2017-12-12T06:53:46.120Z,43.58
2017-12-12T06:56:12.534Z,43.59
2017-12-12T06:58:38.947Z,43.59
2017-12-12T07:01:05.381Z,43.59
2017-12-12T07:03:31.800Z,43.56
2017-12-12T07:05:58.231Z,43.54
2017-12-12T07:08:24.644Z,43.56
2017-12-12T07:10:51.077Z,43.52
2017-12-12T07:13:17.492Z,43.54
2017-12-12T07:15:43.910Z,43.52
2017-12-12T07:18:10.350Z,43.55
2017-12-12T07:20:36.790Z,43.48
2017-12-12T07:23:03.211Z,43.50
2017-12-12T07:25:29.651Z,43.51
2017-12-12T07:27:56.090Z,43.50
2017-12-12T07:30:22.508Z,43.43
2017-12-12T07:32:48.934Z,43.48
2017-12-12T07:35:15.349Z,43.37
2017-12-12T07:37:41.783Z,43.41
2017-12-12T07:40:08.195Z,43.46
2017-12-12T07:42:34.627Z,43.43
2017-12-12T07:45:01.040Z,43.33
2017-12-12T07:47:27.499Z,43.44
2017-12-12T07:49:53.903Z,43.37
2017-12-12T07:52:20.338Z,43.39
2017-12-12T07:54:46.778Z,43.33
2017-12-12T07:57:13.199Z,43.33
2017-12-12T07:59:39.613Z,43.33
2017-12-12T08:02:06.045Z,43.32
2017-12-12T08:04:32.470Z,43.34
2017-12-12T08:06:58.914Z,43.35
2017-12-12T08:09:25.335Z,43.30
2017-12-12T08:11:51.932Z,43.33
2017-12-12T08:14:18.342Z,43.27
2017-12-12T08:16:44.757Z,43.27
2017-12-12T08:19:11.190Z,43.23
2017-12-12T08:21:37.606Z,43.26
2017-12-12T08:24:04.048Z,43.24
2017-12-12T08:26:30.464Z,43.23
2017-12-12T08:28:56.880Z,43.23
2017-12-12T08:31:23.311Z,43.20
2017-12-12T08:33:49.730Z,43.19
2017-12-12T08:36:16.170Z,43.16
2017-12-12T08:38:42.588Z,43.19
2017-12-12T08:41:09.019Z,43.20
2017-12-12T08:43:35.436Z,43.20
2017-12-12T08:46:01.870Z,43.13
2017-12-12T08:48:28.286Z,43.21
2017-12-12T08:50:55.068Z,43.20
2017-12-12T08:53:21.479Z,43.24
2017-12-12T08:55:47.894Z,43.22
2017-12-12T08:58:14.327Z,43.18
2017-12-12T09:00:40.741Z,43.18
2017-12-12T09:03:07.183Z,43.19
2017-12-12T09:05:33.597Z,43.23
2017-12-12T09:08:00.009Z,43.22
2017-12-12T09:10:26.439Z,43.21
2017-12-12T09:12:52.874Z,43.20
2017-12-12T09:15:19.287Z,43.23
2017-12-12T09:17:45.716Z,43.17
2017-12-12T09:20:12.127Z,43.16
2017-12-12T09:22:38.832Z,43.16
2017-12-12T09:25:05.253Z,43.19
2017-12-12T09:27:31.669Z,43.11
2017-12-12T09:29:58.101Z,43.17
2017-12-12T09:32:24.507Z,43.17
2017-12-12T09:34:50.949Z,43.17
2017-12-12T09:37:17.364Z,43.21
2017-12-12T09:39:43.823Z,43.15
2017-12-12T09:42:10.235Z,43.13
2017-12-12T09:44:36.786Z,43.11
2017-12-12T09:47:03.204Z,43.15
2017-12-12T09:49:29.617Z,43.15
2017-12-12T09:51:56.050Z,43.19
2017-12-12T09:54:22.461Z,43.14
2017-12-12T09:56:48.909Z,43.13
2017-12-12T09:59:15.333Z,43.19
2017-12-12T10:01:41.775Z,43.15
2017-12-12T10:04:08.185Z,43.15
2017-12-12T10:06:34.895Z,43.10
2017-12-12T10:09:01.310Z,43.10
2017-12-12T10:11:27.728Z,43.11
2017-12-12T10:13:54.467Z,43.06
2017-12-12T10:16:20.876Z,43.08
2017-12-12T10:18:47.291Z,43.14
2017-12-12T10:21:13.718Z,43.06
2017-12-12T10:23:40.187Z,43.07
2017-12-12T10:26:06.572Z,43.06
2017-12-12T10:28:32.985Z,43.08
2017-12-12T10:30:59.786Z,43.03
2017-12-12T10:33:26.203Z,43.04
2017-12-12T10:35:52.616Z,43.05
2017-12-12T10:38:19.046Z,43.07
2017-12-12T10:40:45.460Z,43.02
2017-12-12T10:43:11.894Z,43.01
2017-12-12T10:45:38.308Z,43.04
2017-12-12T10:48:04.767Z,43.05
2017-12-12T10:50:31.174Z,43.01
2017-12-12T10:52:57.803Z,43.08
2017-12-12T10:55:24.214Z,43.05
2017-12-12T10:57:50.624Z,43.05
2017-12-12T11:00:17.074Z,43.03
2017-12-12T11:02:43.484Z,42.99
2017-12-12T11:05:10.527Z,43.02
2017-12-12T11:07:36.943Z,43.19
2017-12-12T11:10:03.385Z,42.29
2017-12-12T11:12:29.801Z,42.02
2017-12-12T11:14:56.225Z,41.93
2017-12-12T11:17:22.667Z,41.84
2017-12-12T11:19:49.104Z,42.43
2017-12-12T11:22:15.545Z,42.30
2017-12-12T11:24:41.959Z,42.38
2017-12-12T11:27:08.402Z,42.27
2017-12-12T11:29:34.823Z,42.36
2017-12-12T11:32:01.266Z,42.32
2017-12-12T11:34:27.683Z,42.41
2017-12-12T11:36:54.123Z,42.38
2017-12-12T11:39:20.541Z,42.41
2017-12-12T11:41:46.955Z,42.29
2017-12-12T11:44:13.396Z,42.35
2017-12-12T11:46:39.814Z,42.41
2017-12-12T11:49:06.254Z,42.40
2017-12-12T11:51:32.666Z,42.43
2017-12-12T11:53:59.105Z,42.42
2017-12-12T11:56:25.520Z,42.43
2017-12-12T11:58:51.937Z,42.43
2017-12-12T12:01:18.372Z,42.46
2017-12-12T12:03:44.813Z,42.43
2017-12-12T12:06:11.234Z,42.44
2017-12-12T12:08:37.647Z,42.48
2017-12-12T12:11:04.087Z,42.44
2017-12-12T12:13:30.504Z,42.47
2017-12-12T12:15:56.954Z,42.48
2017-12-12T12:18:23.368Z,42.48
2017-12-12T12:20:49.808Z,42.49
2017-12-12T12:23:16.237Z,42.47
2017-12-12T12:25:42.681Z,42.49
2017-12-12T12:28:09.140Z,42.52
2017-12-12T12:30:35.549Z,42.49
2017-12-12T12:33:01.977Z,42.53
2017-12-12T12:35:28.413Z,42.54
2017-12-12T12:37:54.832Z,42.53
2017-12-12T12:40:21.278Z,42.54
2017-12-12T12:42:47.694Z,42.55
2017-12-12T12:45:14.134Z,42.55
2017-12-12T12:47:40.562Z,42.56
2017-12-12T12:50:06.976Z,42.57
2017-12-12T12:52:33.421Z,42.58
2017-12-12T12:54:59.836Z,42.58
2017-12-12T12:57:26.283Z,42.57
2017-12-12T12:59:52.698Z,42.58
2017-12-12T13:02:19.151Z,42.60
2017-12-12T13:04:45.570Z,42.59
2017-12-12T13:07:12.003Z,42.58
2017-12-12T13:09:38.418Z,42.64
2017-12-12T13:12:04.856Z,42.59
2017-12-12T13:14:31.280Z,42.61
2017-12-12T13:16:57.724Z,42.63
2017-12-12T13:19:24.140Z,42.59
2017-12-12T13:21:50.557Z,42.62
2017-12-12T13:24:16.994Z,42.61
2017-12-12T13:26:43.414Z,42.59
2017-12-12T13:29:09.855Z,42.63
2017-12-12T13:31:36.270Z,42.60
2017-12-12T13:34:02.714Z,42.65
2017-12-12T13:36:29.137Z,42.62
2017-12-12T13:38:55.764Z,42.64
2017-12-12T13:41:22.185Z,42.61
2017-12-12T13:43:48.607Z,42.62
2017-12-12T13:46:15.049Z,42.65
2017-12-12T13:48:41.469Z,42.65
2017-12-12T13:51:07.910Z,42.58
2017-12-12T13:53:34.333Z,42.61
2017-12-12T13:56:00.768Z,42.65
2017-12-12T13:58:27.189Z,42.58
2017-12-12T14:00:53.631Z,42.61
2017-12-12T14:03:20.053Z,42.62
2017-12-12T14:05:46.695Z,42.65
2017-12-12T14:08:13.113Z,42.64
2017-12-12T14:10:39.530Z,42.64
2017-12-12T14:13:05.969Z,42.56
2017-12-12T14:15:32.397Z,42.68
2017-12-12T14:17:58.828Z,42.60
2017-12-12T14:20:25.252Z,42.59
2017-12-12T14:22:51.694Z,42.63
2017-12-12T14:25:18.139Z,42.65
2017-12-12T14:27:44.580Z,42.65
2017-12-12T14:30:10.996Z,42.62
2017-12-12T14:32:37.441Z,42.60
2017-12-12T14:35:03.889Z,42.64
2017-12-12T14:37:30.392Z,42.58
2017-12-12T14:39:56.833Z,42.61
2017-12-12T14:42:23.252Z,42.61
2017-12-12T14:44:49.720Z,42.63
2017-12-12T14:47:16.261Z,42.60
2017-12-12T14:49:42.797Z,42.58
2017-12-12T14:52:09.233Z,42.57
2017-12-12T14:54:35.654Z,42.62
2017-12-12T14:57:02.093Z,42.62
2017-12-12T14:59:28.511Z,42.60
2017-12-12T15:01:54.950Z,42.61
2017-12-12T15:04:21.369Z,42.58
2017-12-12T15:06:47.810Z,42.55
2017-12-12T15:09:14.231Z,42.57
2017-12-12T15:11:40.679Z,42.63
2017-12-12T15:14:07.099Z,42.60
2017-12-12T15:16:33.536Z,42.59
2017-12-12T15:18:59.947Z,42.58
2017-12-12T15:21:26.368Z,42.55
2017-12-12T15:23:52.811Z,42.61
2017-12-12T15:26:19.236Z,42.58
2017-12-12T15:28:45.678Z,42.64
2017-12-12T15:31:12.101Z,42.50
2017-12-12T15:33:38.541Z,42.57
2017-12-12T15:36:04.963Z,42.58
2017-12-12T15:38:31.398Z,42.55
2017-12-12T15:40:57.820Z,42.58
2017-12-12T15:43:24.261Z,42.59
2017-12-12T15:45:50.691Z,42.57
2017-12-12T15:48:17.140Z,42.52
2017-12-12T15:50:43.557Z,42.58
2017-12-12T15:53:09.997Z,42.57
2017-12-12T15:55:36.442Z,42.54
2017-12-12T15:58:02.865Z,42.50
2017-12-12T16:00:29.312Z,42.61
2017-12-12T16:02:55.734Z,42.60
2017-12-12T16:05:22.152Z,42.58
2017-12-12T16:07:48.603Z,42.56
2017-12-12T16:10:15.023Z,42.58
2017-12-12T16:12:41.438Z,42.54
2017-12-12T16:15:07.888Z,42.61
2017-12-12T16:17:34.302Z,42.56
2017-12-12T16:20:00.716Z,42.51
2017-12-12T16:22:27.156Z,42.54
2017-12-12T16:24:53.576Z,42.53
2017-12-12T16:27:19.994Z,42.49
2017-12-12T16:29:46.439Z,42.59
2017-12-12T16:32:12.860Z,42.48
2017-12-12T16:34:39.302Z,42.54
2017-12-12T16:37:05.723Z,42.50
2017-12-12T16:39:32.140Z,42.56
2017-12-12T16:41:58.579Z,42.52
2017-12-12T16:44:25.003Z,42.58
2017-12-12T16:46:51.440Z,42.57
2017-12-12T16:49:17.868Z,42.55
2017-12-12T16:51:44.307Z,42.48
2017-12-12T16:54:10.725Z,42.50
2017-12-12T16:56:37.168Z,42.62
2017-12-12T16:59:03.589Z,42.53
2017-12-12T17:01:30.031Z,42.53
2017-12-12T17:03:56.445Z,42.52
2017-12-12T17:06:22.892Z,42.51
2017-12-12T17:08:49.324Z,42.46
2017-12-12T17:11:15.772Z,42.64
2017-12-12T17:13:42.226Z,42.53
2017-12-12T17:16:08.613Z,42.54
2017-12-12T17:18:35.050Z,42.54
2017-12-12T17:21:01.507Z,42.45
2017-12-12T17:23:27.925Z,42.46
2017-12-12T17:25:54.338Z,42.48
2017-12-12T17:28:20.780Z,42.62
2017-12-12T17:30:47.198Z,42.59
2017-12-12T17:33:13.641Z,42.46
2017-12-12T17:35:40.060Z,42.44
2017-12-12T17:38:06.496Z,42.48
2017-12-12T17:40:32.908Z,42.56
2017-12-12T17:42:59.352Z,42.55
2017-12-12T17:45:25.764Z,42.49
2017-12-12T17:47:52.200Z,42.46
2017-12-12T17:50:18.616Z,42.54
2017-12-12T17:52:45.061Z,42.48
2017-12-12T17:55:11.481Z,42.48
2017-12-12T17:57:37.925Z,42.61
2017-12-12T18:00:04.340Z,42.45
2017-12-12T18:02:30.780Z,42.46
2017-12-12T18:04:57.206Z,42.43
2017-12-12T18:07:23.652Z,42.53
2017-12-12T18:09:50.100Z,42.59
2017-12-12T18:12:16.485Z,42.44
2017-12-12T18:14:42.927Z,42.63
2017-12-12T18:17:09.351Z,42.52
2017-12-12T18:19:35.792Z,42.41
2017-12-12T18:22:02.218Z,42.42
2017-12-12T18:24:28.653Z,42.57
2017-12-12T18:26:55.068Z,42.52
2017-12-12T18:29:21.515Z,42.41
2017-12-12T18:31:47.935Z,42.54
2017-12-12T18:34:14.364Z,42.41
2017-12-12T18:36:40.854Z,42.50
2017-12-12T18:39:07.271Z,42.46
2017-12-12T18:41:33.713Z,42.42
2017-12-12T18:44:00.147Z,42.40
2017-12-12T18:46:26.591Z,42.41
2017-12-12T18:48:53.012Z,42.42
2017-12-12T18:51:19.458Z,42.41
2017-12-12T18:53:45.873Z,42.46
2017-12-12T18:56:12.543Z,42.41
2017-12-12T18:58:38.964Z,42.40
2017-12-12T19:01:05.389Z,42.42
2017-12-12T19:03:31.834Z,42.45
2017-12-12T19:05:58.250Z,42.46
2017-12-12T19:08:24.665Z,42.44
2017-12-12T19:10:51.100Z,42.44
2017-12-12T19:13:17.566Z,42.47
2017-12-12T19:15:43.982Z,42.40
2017-12-12T19:18:10.398Z,42.76
2017-12-12T19:20:36.836Z,42.69
2017-12-12T19:23:03.258Z,43.11
2017-12-12T19:25:29.704Z,42.94
2017-12-12T19:27:56.123Z,42.99
2017-12-12T19:30:22.599Z,42.97
2017-12-12T19:32:49.032Z,43.04
2017-12-12T19:35:15.447Z,43.03
2017-12-12T19:37:41.883Z,43.07
2017-12-12T19:40:08.301Z,43.16
2017-12-12T19:42:34.744Z,43.30
2017-12-12T19:45:01.167Z,43.22
2017-12-12T19:47:27.612Z,43.25
2017-12-12T19:49:54.035Z,43.33
2017-12-12T19:52:20.479Z,43.46
2017-12-12T19:54:46.898Z,43.40
2017-12-12T19:57:13.346Z,43.56
2017-12-12T19:59:39.763Z,43.52
2017-12-12T20:02:06.229Z,43.65
2017-12-12T20:04:32.667Z,43.56
2017-12-12T20:06:59.101Z,43.38
2017-12-12T20:09:25.522Z,43.15
2017-12-12T20:11:51.986Z,42.52
2017-12-12T20:14:18.406Z,42.68
2017-12-12T20:16:44.849Z,42.72
2017-12-12T20:19:11.265Z,42.78
2017-12-12T20:21:37.712Z,42.87
2017-12-12T20:24:04.138Z,42.91
2017-12-12T20:26:30.553Z,42.98
2017-12-12T20:28:56.996Z,42.97
2017-12-12T20:31:23.473Z,43.02
2017-12-12T20:36:03.488Z,42.03
2017-12-12T20:38:29.920Z,42.13
2017-12-12T20:40:56.342Z,42.41
2017-12-12T20:43:22.792Z,42.25
2017-12-12T20:45:49.212Z,42.11
2017-12-12T20:48:15.678Z,42.15
2017-12-12T20:50:42.192Z,42.11
2017-12-12T20:53:08.662Z,42.10
2017-12-12T20:55:35.147Z,42.04
2017-12-12T20:59:25.519Z,42.94
2017-12-12T21:01:51.933Z,43.09
2017-12-12T21:04:18.400Z,43.17
2017-12-12T21:06:44.790Z,43.25
2017-12-12T21:09:11.557Z,43.26
2017-12-12T21:11:37.968Z,43.26
2017-12-12T21:14:04.412Z,43.32
2017-12-12T21:16:30.914Z,43.22
2017-12-12T21:32:04.945Z,43.09
2017-12-12T21:34:31.367Z,43.08
2017-12-12T21:36:57.805Z,43.07
2017-12-12T21:39:24.223Z,43.05
2017-12-12T21:41:50.655Z,42.99
2017-12-12T21:44:17.077Z,43.05
2017-12-12T21:46:43.513Z,43.08
2017-12-12T21:49:09.930Z,43.02
2017-12-12T21:51:36.375Z,42.98
2017-12-12T21:54:02.796Z,42.98
2017-12-12T21:56:29.249Z,42.92
2017-12-12T21:58:55.673Z,42.93
2017-12-12T22:01:22.405Z,42.93
2017-12-12T22:03:48.827Z,42.88
2017-12-12T22:06:15.246Z,42.89
2017-12-12T22:08:41.736Z,42.87
2017-12-12T22:11:08.194Z,42.80
2017-12-12T22:13:34.741Z,42.80
2017-12-12T22:16:01.125Z,42.88
2017-12-12T22:18:27.624Z,42.79
2017-12-12T22:20:54.045Z,42.84
2017-12-12T22:23:20.487Z,42.82
2017-12-12T22:25:46.908Z,42.78
2017-12-12T22:28:13.359Z,42.76
2017-12-12T22:30:39.773Z,42.81
2017-12-12T22:33:06.356Z,42.75
2017-12-12T22:35:32.773Z,42.78
2017-12-12T22:37:59.193Z,42.77
2017-12-12T22:40:25.629Z,42.76
2017-12-12T22:42:52.083Z,42.64
2017-12-12T22:45:18.529Z,42.73
2017-12-12T22:47:44.947Z,42.68
2017-12-12T22:50:11.388Z,42.66
2017-12-12T22:52:37.879Z,42.66
2017-12-12T22:55:04.582Z,42.73
2017-12-12T22:57:31.080Z,42.74
2017-12-12T22:59:57.561Z,42.73
2017-12-12T23:02:24.001Z,42.75
2017-12-12T23:04:50.420Z,42.69
2017-12-12T23:07:16.856Z,42.67
2017-12-12T23:09:43.268Z,42.71
2017-12-12T23:12:09.715Z,42.74
2017-12-12T23:14:36.129Z,42.71
2017-12-12T23:17:02.686Z,42.75
2017-12-12T23:19:29.104Z,42.74
2017-12-12T23:21:55.530Z,42.73
2017-12-12T23:24:21.999Z,42.84
2017-12-12T23:26:48.391Z,42.76
2017-12-12T23:29:14.830Z,42.73
2017-12-12T23:31:41.250Z,42.72
2017-12-12T23:34:07.925Z,42.77
2017-12-12T23:36:34.345Z,42.73
2017-12-12T23:39:00.761Z,42.72
2017-12-12T23:41:27.197Z,42.70
2017-12-12T23:43:53.618Z,42.72
2017-12-12T23:46:20.054Z,42.75
2017-12-12T23:48:46.475Z,42.75
2017-12-12T23:51:12.924Z,42.73
2017-12-12T23:53:39.341Z,42.71
2017-12-12T23:56:05.761Z,42.79
2017-12-12T23:58:32.201Z,42.72
